createdAt,value
2018-07-26T00:00:43.369Z,99.90
2018-07-26T00:03:18.744Z,99.90
2018-07-26T00:05:54.255Z,99.90
2018-07-26T00:08:29.628Z,99.90
2018-07-26T00:13:42.688Z,99.90
2018-07-26T00:16:18.333Z,99.90
2018-07-26T00:18:54.320Z,99.90
2018-07-26T00:21:29.853Z,99.90
2018-07-26T00:24:05.520Z,99.90
2018-07-26T00:26:40.958Z,99.90
2018-07-26T00:29:16.717Z,99.90
2018-07-26T00:31:52.192Z,99.90
2018-07-26T00:34:27.915Z,99.90
2018-07-26T00:37:03.364Z,99.90
2018-07-26T00:39:39.294Z,99.90
2018-07-26T00:42:15.076Z,99.90
2018-07-26T00:44:50.740Z,99.90
2018-07-26T00:47:26.296Z,99.90
2018-07-26T00:50:01.874Z,99.90
2018-07-26T00:52:37.184Z,99.90
2018-07-26T00:55:12.800Z,99.90
2018-07-26T00:57:48.124Z,99.90
2018-07-26T01:00:23.566Z,99.90
2018-07-26T01:02:59.000Z,99.90
2018-07-26T01:05:34.752Z,99.90
2018-07-26T01:08:10.454Z,99.90
2018-07-26T01:10:46.081Z,99.90
2018-07-26T01:13:21.559Z,99.90
2018-07-26T01:15:57.249Z,99.90
2018-07-26T01:18:32.565Z,99.90
2018-07-26T01:21:08.344Z,99.90
2018-07-26T01:23:43.706Z,99.90
2018-07-26T01:26:19.087Z,99.90
2018-07-26T01:28:54.553Z,99.90
2018-07-26T01:31:30.121Z,99.90
2018-07-26T01:34:05.320Z,99.90
2018-07-26T01:36:40.812Z,99.90
2018-07-26T01:39:16.214Z,99.90
2018-07-26T01:41:52.208Z,99.90
2018-07-26T01:44:27.501Z,99.90
2018-07-26T01:47:02.888Z,99.90
2018-07-26T01:49:38.073Z,99.90
2018-07-26T01:52:13.689Z,99.90
2018-07-26T01:54:49.176Z,99.90
2018-07-26T01:57:24.680Z,99.90
2018-07-26T02:00:00.026Z,99.90
2018-07-26T02:02:35.367Z,99.90
2018-07-26T02:05:10.532Z,99.90
2018-07-26T02:07:46.040Z,99.90
2018-07-26T02:10:21.329Z,99.90
2018-07-26T02:12:57.466Z,99.90
2018-07-26T02:18:08.324Z,99.90
2018-07-26T02:20:43.645Z,99.90
2018-07-26T02:23:19.508Z,99.90
2018-07-26T02:25:55.185Z,99.90
2018-07-26T02:28:30.839Z,99.90
2018-07-26T02:33:41.937Z,99.90
2018-07-26T02:36:17.264Z,99.90
2018-07-26T02:38:52.721Z,99.90
2018-07-26T02:41:28.064Z,99.90
2018-07-26T02:44:03.569Z,99.90
2018-07-26T02:46:38.905Z,99.90
2018-07-26T02:49:14.515Z,99.90
2018-07-26T02:51:49.665Z,99.90
2018-07-26T02:54:25.096Z,99.90
2018-07-26T02:57:00.297Z,99.90
2018-07-26T02:59:35.876Z,99.90
2018-07-26T03:02:11.112Z,99.90
2018-07-26T03:04:46.637Z,99.90
2018-07-26T03:07:22.030Z,99.90
2018-07-26T03:09:57.444Z,99.90
2018-07-26T03:12:31.919Z,99.90
2018-07-26T03:15:08.337Z,99.90
2018-07-26T03:17:43.715Z,99.90
2018-07-26T03:22:54.457Z,99.90
2018-07-26T03:25:30.125Z,99.90
2018-07-26T03:28:05.542Z,99.90
2018-07-26T03:30:41.112Z,99.90
2018-07-26T03:33:16.549Z,99.90
2018-07-26T03:38:27.556Z,99.90
2018-07-26T03:41:03.149Z,99.90
2018-07-26T03:43:38.615Z,99.90
2018-07-26T03:46:13.992Z,99.90
2018-07-26T03:48:49.436Z,99.90
2018-07-26T03:51:24.920Z,99.90
2018-07-26T03:54:00.329Z,99.90
2018-07-26T03:56:35.977Z,99.90
2018-07-26T03:59:11.450Z,99.90
2018-07-26T04:01:47.072Z,99.90
2018-07-26T04:04:22.342Z,99.90
2018-07-26T04:06:58.056Z,99.90
2018-07-26T04:12:08.952Z,99.90
2018-07-26T04:17:19.751Z,99.90
2018-07-26T04:19:55.063Z,99.90
2018-07-26T04:22:30.648Z,99.90
2018-07-26T04:25:05.852Z,99.90
2018-07-26T04:27:41.320Z,99.90
2018-07-26T04:32:52.420Z,99.90
2018-07-26T04:35:27.952Z,99.90
2018-07-26T04:38:03.609Z,99.90
2018-07-26T04:40:39.090Z,99.90
2018-07-26T04:43:14.420Z,99.90
2018-07-26T04:45:49.876Z,99.90
2018-07-26T04:48:25.497Z,99.90
2018-07-26T04:51:00.984Z,99.90
2018-07-26T04:53:36.789Z,99.90
2018-07-26T04:56:12.187Z,99.90
2018-07-26T04:58:47.685Z,99.90
2018-07-26T05:03:58.368Z,99.90
2018-07-26T05:06:33.684Z,99.90
2018-07-26T05:09:10.907Z,99.90
2018-07-26T05:11:46.192Z,99.90
2018-07-26T05:14:21.785Z,99.90
2018-07-26T05:16:56.448Z,99.90
2018-07-26T05:19:31.370Z,99.90
2018-07-26T05:22:06.812Z,99.90
2018-07-26T05:24:42.336Z,99.90
2018-07-26T05:27:17.179Z,99.90
2018-07-26T05:29:52.279Z,99.90
2018-07-26T05:32:27.007Z,99.90
2018-07-26T05:35:01.830Z,99.90
2018-07-26T05:37:37.141Z,99.90
2018-07-26T05:40:12.765Z,99.90
2018-07-26T05:42:48.115Z,99.90
2018-07-26T05:45:23.752Z,99.90
2018-07-26T05:47:59.033Z,99.90
2018-07-26T05:50:34.546Z,99.90
2018-07-26T05:53:09.859Z,99.90
2018-07-26T05:55:45.435Z,99.90
2018-07-26T05:58:20.776Z,99.90
2018-07-26T06:00:56.328Z,99.90
2018-07-26T06:03:31.656Z,99.90
2018-07-26T06:06:07.245Z,99.90
2018-07-26T06:08:42.486Z,99.90
2018-07-26T06:11:18.005Z,99.90
2018-07-26T06:13:53.424Z,99.90
2018-07-26T06:16:29.052Z,99.90
2018-07-26T06:19:04.485Z,99.90
2018-07-26T06:21:40.697Z,99.90
2018-07-26T06:24:16.076Z,99.90
2018-07-26T06:26:51.702Z,99.80
2018-07-26T06:29:27.469Z,99.40
2018-07-26T06:32:03.114Z,99.50
2018-07-26T06:34:38.578Z,99.90
2018-07-26T06:37:14.402Z,98.50
2018-07-26T06:39:49.762Z,97.90
2018-07-26T06:42:25.188Z,97.20
2018-07-26T06:45:00.649Z,96.00
2018-07-26T06:47:36.178Z,95.60
2018-07-26T06:50:12.744Z,95.80
2018-07-26T06:52:48.405Z,95.10
2018-07-26T06:55:23.580Z,95.40
2018-07-26T06:57:59.192Z,94.50
2018-07-26T07:00:34.502Z,94.30
2018-07-26T07:03:10.072Z,94.20
2018-07-26T07:05:45.429Z,93.80
2018-07-26T07:08:21.173Z,91.90
2018-07-26T07:10:56.520Z,92.50
2018-07-26T07:13:32.507Z,92.90
2018-07-26T07:16:07.919Z,92.70
2018-07-26T07:18:43.597Z,92.20
2018-07-26T07:21:19.012Z,92.00
2018-07-26T07:23:54.705Z,91.80
2018-07-26T07:26:30.204Z,91.30
2018-07-26T07:29:05.965Z,90.90
2018-07-26T07:31:41.200Z,90.40
2018-07-26T07:34:16.778Z,91.10
2018-07-26T07:36:51.977Z,90.40
2018-07-26T07:39:27.519Z,88.30
2018-07-26T07:42:02.961Z,88.70
2018-07-26T07:44:38.436Z,89.50
2018-07-26T07:47:13.893Z,87.20
2018-07-26T07:49:49.216Z,87.00
2018-07-26T07:52:24.717Z,85.70
2018-07-26T07:55:00.724Z,84.60
2018-07-26T07:57:36.159Z,85.50
2018-07-26T08:00:11.720Z,85.20
2018-07-26T08:02:46.897Z,86.30
2018-07-26T08:05:22.528Z,86.00
2018-07-26T08:10:33.095Z,86.90
2018-07-26T08:15:43.885Z,88.10
2018-07-26T08:18:19.388Z,90.30
2018-07-26T08:20:54.767Z,91.60
2018-07-26T08:23:30.138Z,92.60
2018-07-26T08:26:05.756Z,92.70
2018-07-26T08:28:41.206Z,93.10
2018-07-26T08:31:17.060Z,93.20
2018-07-26T08:33:52.497Z,93.50
2018-07-26T08:36:27.948Z,93.60
2018-07-26T08:39:03.457Z,93.10
2018-07-26T08:41:38.900Z,93.60
2018-07-26T08:44:14.204Z,93.30
2018-07-26T08:46:49.736Z,94.20
2018-07-26T08:49:25.145Z,93.90
2018-07-26T08:52:00.737Z,93.80
2018-07-26T08:54:36.060Z,94.10
2018-07-26T08:57:11.705Z,94.10
2018-07-26T08:59:47.202Z,94.30
2018-07-26T09:02:22.712Z,93.70
2018-07-26T09:04:58.048Z,94.40
2018-07-26T09:07:33.893Z,93.60
2018-07-26T09:10:09.358Z,93.50
2018-07-26T09:12:44.901Z,93.90
2018-07-26T09:15:20.604Z,93.00
2018-07-26T09:17:56.040Z,93.10
2018-07-26T09:20:31.431Z,93.30
2018-07-26T09:25:42.112Z,94.00
2018-07-26T09:28:17.692Z,93.10
2018-07-26T09:30:53.035Z,94.10
2018-07-26T09:33:28.568Z,93.50
2018-07-26T09:36:04.032Z,93.00
2018-07-26T09:38:39.473Z,93.50
2018-07-26T09:41:15.399Z,92.90
2018-07-26T09:43:50.969Z,92.60
2018-07-26T09:46:26.304Z,92.80
2018-07-26T09:49:01.857Z,92.70
2018-07-26T09:51:37.585Z,92.80
2018-07-26T09:54:12.984Z,92.60
2018-07-26T09:56:48.308Z,92.70
2018-07-26T09:59:23.956Z,92.80
2018-07-26T10:01:59.304Z,92.60
2018-07-26T10:04:34.828Z,92.50
2018-07-26T10:07:10.152Z,92.30
2018-07-26T10:09:46.210Z,92.80
2018-07-26T10:12:21.378Z,92.90
2018-07-26T10:14:57.128Z,92.60
2018-07-26T10:17:32.479Z,92.10
2018-07-26T10:20:08.262Z,92.50
2018-07-26T10:22:43.613Z,92.60
2018-07-26T10:27:55.367Z,92.60
2018-07-26T10:30:31.131Z,92.40
2018-07-26T10:33:06.970Z,92.20
2018-07-26T10:35:42.617Z,92.10
2018-07-26T10:38:18.014Z,92.30
2018-07-26T10:40:53.625Z,92.00
2018-07-26T10:46:04.312Z,92.30
2018-07-26T10:48:39.628Z,91.50
2018-07-26T10:51:15.210Z,91.60
2018-07-26T10:53:50.512Z,91.80
2018-07-26T10:56:25.995Z,91.60
2018-07-26T10:59:01.485Z,91.40
2018-07-26T11:01:37.085Z,92.20
2018-07-26T11:04:12.603Z,91.60
2018-07-26T11:06:48.292Z,91.90
2018-07-26T11:09:23.516Z,91.20
2018-07-26T11:11:59.141Z,90.40
2018-07-26T11:14:34.550Z,90.70
2018-07-26T11:17:10.170Z,90.90
2018-07-26T11:19:46.052Z,90.40
2018-07-26T11:22:21.564Z,91.00
2018-07-26T11:24:57.024Z,90.90
2018-07-26T11:27:32.660Z,90.70
2018-07-26T11:30:08.332Z,90.10
2018-07-26T11:32:43.968Z,90.10
2018-07-26T11:35:19.288Z,90.30
2018-07-26T11:37:54.864Z,89.10
2018-07-26T11:43:05.744Z,89.40
2018-07-26T11:45:41.117Z,90.10
2018-07-26T11:50:51.801Z,88.30
2018-07-26T11:53:27.321Z,86.90
2018-07-26T11:56:02.783Z,87.40
2018-07-26T11:58:38.417Z,85.90
2018-07-26T12:01:13.685Z,85.70
2018-07-26T12:03:49.106Z,84.90
2018-07-26T12:06:24.553Z,84.70
2018-07-26T12:09:00.038Z,85.20
2018-07-26T12:11:35.312Z,87.20
2018-07-26T12:14:11.660Z,88.40
2018-07-26T12:16:46.984Z,87.60
2018-07-26T12:19:22.397Z,86.40
2018-07-26T12:21:57.908Z,87.10
2018-07-26T12:24:33.373Z,85.80
2018-07-26T12:27:08.686Z,84.80
2018-07-26T12:32:19.589Z,83.30
2018-07-26T12:34:55.373Z,82.70
2018-07-26T12:37:30.844Z,82.50
2018-07-26T12:40:06.771Z,80.80
2018-07-26T12:42:42.117Z,81.90
2018-07-26T12:47:52.642Z,82.00
2018-07-26T12:50:28.140Z,83.40
2018-07-26T12:53:03.675Z,82.40
2018-07-26T12:55:39.126Z,81.80
2018-07-26T12:58:14.536Z,81.70
2018-07-26T13:00:50.026Z,82.50
2018-07-26T13:06:00.797Z,81.20
2018-07-26T13:08:36.171Z,81.00
2018-07-26T13:11:11.814Z,80.70
2018-07-26T13:13:47.540Z,79.80
2018-07-26T13:16:23.305Z,80.80
2018-07-26T13:18:58.598Z,80.90
2018-07-26T13:21:34.201Z,80.90
2018-07-26T13:24:09.623Z,79.60
2018-07-26T13:26:45.340Z,79.10
2018-07-26T13:29:20.812Z,79.80
2018-07-26T13:31:56.196Z,80.60
2018-07-26T13:34:31.359Z,80.10
2018-07-26T13:37:06.872Z,79.90
2018-07-26T13:39:42.386Z,80.70
2018-07-26T13:42:17.964Z,81.20
2018-07-26T13:44:53.112Z,81.70
2018-07-26T13:47:28.668Z,81.80
2018-07-26T13:50:03.984Z,81.70
2018-07-26T13:52:39.466Z,81.70
2018-07-26T13:55:14.941Z,81.70
2018-07-26T13:57:50.393Z,82.60
2018-07-26T14:00:25.602Z,82.20
2018-07-26T14:03:01.129Z,82.30
2018-07-26T14:05:36.538Z,82.60
2018-07-26T14:08:12.336Z,83.20
2018-07-26T14:10:48.103Z,83.20
2018-07-26T14:13:23.617Z,83.50
2018-07-26T14:15:59.125Z,83.20
2018-07-26T14:18:34.613Z,83.60
2018-07-26T14:21:09.997Z,82.90
2018-07-26T14:23:45.396Z,83.20
2018-07-26T14:26:20.632Z,81.40
2018-07-26T14:31:31.745Z,80.80
2018-07-26T14:36:42.708Z,80.90
2018-07-26T14:39:18.372Z,80.60
2018-07-26T14:41:53.824Z,80.30
2018-07-26T14:44:29.305Z,79.80
2018-07-26T14:47:04.791Z,80.40
2018-07-26T14:49:40.255Z,80.90
2018-07-26T14:52:15.712Z,80.00
2018-07-26T14:54:51.253Z,79.30
2018-07-26T14:57:26.729Z,79.90
2018-07-26T15:00:02.249Z,82.60
2018-07-26T15:02:37.540Z,84.00
2018-07-26T15:05:13.133Z,84.70
2018-07-26T15:07:48.314Z,84.90
2018-07-26T15:10:24.125Z,87.30
2018-07-26T15:12:59.653Z,88.00
2018-07-26T15:15:35.121Z,88.90
2018-07-26T15:18:10.353Z,89.80
2018-07-26T15:20:45.926Z,90.10
2018-07-26T15:23:21.424Z,90.40
2018-07-26T15:25:57.017Z,87.90
2018-07-26T15:28:32.192Z,87.20
2018-07-26T15:31:08.000Z,86.80
2018-07-26T15:33:43.296Z,86.90
2018-07-26T15:36:18.909Z,87.20
2018-07-26T15:38:54.243Z,88.00
2018-07-26T15:41:29.874Z,89.30
2018-07-26T15:46:40.671Z,90.70
2018-07-26T15:49:16.089Z,90.90
2018-07-26T15:51:51.558Z,91.30
2018-07-26T15:54:26.794Z,91.30
2018-07-26T15:57:02.374Z,91.40
2018-07-26T15:59:37.696Z,91.60
2018-07-26T16:02:13.167Z,91.60
2018-07-26T16:04:48.575Z,91.70
2018-07-26T16:09:59.337Z,91.90
2018-07-26T16:12:35.017Z,92.30
2018-07-26T16:15:11.156Z,92.00
2018-07-26T16:17:46.902Z,91.90
2018-07-26T16:20:22.199Z,92.00
2018-07-26T16:22:57.824Z,92.40
2018-07-26T16:25:33.268Z,92.40
2018-07-26T16:28:08.922Z,92.40
2018-07-26T16:30:44.259Z,92.60
2018-07-26T16:33:19.716Z,92.70
2018-07-26T16:35:55.119Z,92.90
2018-07-26T16:38:30.705Z,92.90
2018-07-26T16:41:06.100Z,93.10
2018-07-26T16:46:16.597Z,93.10
2018-07-26T16:48:52.173Z,93.40
2018-07-26T16:51:28.127Z,93.30
2018-07-26T16:54:03.687Z,93.60
2018-07-26T16:56:39.156Z,93.80
2018-07-26T16:59:14.748Z,93.70
2018-07-26T17:01:49.992Z,93.80
2018-07-26T17:04:25.672Z,93.90
2018-07-26T17:09:36.456Z,93.80
2018-07-26T17:14:47.037Z,94.10
2018-07-26T17:17:22.484Z,94.20
2018-07-26T17:19:58.028Z,94.40
2018-07-26T17:22:33.357Z,94.50
2018-07-26T17:25:08.931Z,94.60
2018-07-26T17:27:44.320Z,94.80
2018-07-26T17:30:20.021Z,94.70
2018-07-26T17:32:55.204Z,94.70
2018-07-26T17:35:30.717Z,95.00
2018-07-26T17:38:06.140Z,95.20
2018-07-26T17:40:41.741Z,95.10
2018-07-26T17:43:17.030Z,95.50
2018-07-26T17:45:52.496Z,95.50
2018-07-26T17:48:28.005Z,95.40
2018-07-26T17:51:03.737Z,95.60
2018-07-26T17:53:39.041Z,95.80
2018-07-26T17:56:14.480Z,95.90
2018-07-26T17:58:49.856Z,96.00
2018-07-26T18:04:00.713Z,96.20
2018-07-26T18:06:36.461Z,96.40
2018-07-26T18:09:11.676Z,96.60
2018-07-26T18:11:47.385Z,96.70
2018-07-26T18:14:22.684Z,96.80
2018-07-26T18:16:58.289Z,97.00
2018-07-26T18:19:33.621Z,97.00
2018-07-26T18:22:09.133Z,97.00
2018-07-26T18:24:44.371Z,97.00
2018-07-26T18:27:19.917Z,97.40
2018-07-26T18:29:55.262Z,97.50
2018-07-26T18:32:31.008Z,97.70
2018-07-26T18:35:10.386Z,97.80
2018-07-26T18:37:46.101Z,97.90
2018-07-26T18:40:21.489Z,98.10
2018-07-26T18:42:57.096Z,98.30
2018-07-26T18:45:32.389Z,98.40
2018-07-26T18:48:07.879Z,98.60
2018-07-26T18:50:43.386Z,98.80
2018-07-26T18:53:19.109Z,98.70
2018-07-26T18:55:54.557Z,98.80
2018-07-26T18:58:30.177Z,98.90
2018-07-26T19:01:05.672Z,99.10
2018-07-26T19:03:41.269Z,99.10
2018-07-26T19:06:16.568Z,99.20
2018-07-26T19:08:52.170Z,99.50
2018-07-26T19:11:27.612Z,99.90
2018-07-26T19:14:03.256Z,99.90
2018-07-26T19:16:38.684Z,99.90
2018-07-26T19:19:14.358Z,99.90
2018-07-26T19:21:49.824Z,99.90
2018-07-26T19:24:25.486Z,99.90
2018-07-26T19:27:00.897Z,99.90
2018-07-26T19:29:36.306Z,99.90
2018-07-26T19:32:11.720Z,99.90
2018-07-26T19:34:47.320Z,99.90
2018-07-26T19:37:22.700Z,99.90
2018-07-26T19:39:58.099Z,99.90
2018-07-26T19:42:33.555Z,99.90
2018-07-26T19:45:10.349Z,99.90
2018-07-26T19:47:45.748Z,99.90
2018-07-26T19:50:21.224Z,99.90
2018-07-26T19:52:56.611Z,99.90
2018-07-26T19:55:32.349Z,99.90
2018-07-26T19:58:07.585Z,99.90
2018-07-26T20:00:43.113Z,99.90
2018-07-26T20:03:18.358Z,99.90
2018-07-26T20:05:54.009Z,99.90
2018-07-26T20:08:29.506Z,99.90
2018-07-26T20:11:05.430Z,99.90
2018-07-26T20:13:40.828Z,99.90
2018-07-26T20:16:16.406Z,99.90
2018-07-26T20:18:51.769Z,99.90
2018-07-26T20:21:27.191Z,99.90
2018-07-26T20:24:02.702Z,99.90
2018-07-26T20:26:38.396Z,99.90
2018-07-26T20:29:13.973Z,99.90
2018-07-26T20:34:25.016Z,99.90
2018-07-26T20:37:00.580Z,99.90
2018-07-26T20:39:36.158Z,99.90
2018-07-26T20:42:12.188Z,99.90
2018-07-26T20:44:47.638Z,99.90
2018-07-26T20:47:23.073Z,99.90
2018-07-26T20:49:58.546Z,99.90
2018-07-26T20:52:34.073Z,99.90
2018-07-26T20:55:09.437Z,99.90
2018-07-26T20:57:45.360Z,99.90
2018-07-26T21:00:20.727Z,99.90
2018-07-26T21:02:56.569Z,99.90
2018-07-26T21:05:32.072Z,99.90
2018-07-26T21:10:49.060Z,99.90
2018-07-26T21:13:24.394Z,99.90
2018-07-26T21:15:59.920Z,99.90
2018-07-26T21:18:35.385Z,99.90
2018-07-26T21:21:10.868Z,99.90
2018-07-26T21:23:46.264Z,99.90
2018-07-26T21:26:21.528Z,99.90
2018-07-26T21:28:57.472Z,99.90
2018-07-26T21:31:33.138Z,99.90
2018-07-26T21:34:08.949Z,99.90
2018-07-26T21:36:44.250Z,99.90
2018-07-26T21:39:19.864Z,99.90
2018-07-26T21:41:55.235Z,99.90
2018-07-26T21:44:30.989Z,99.90
2018-07-26T21:47:06.385Z,99.90
2018-07-26T21:49:41.952Z,99.90
2018-07-26T21:52:17.284Z,99.90
2018-07-26T21:54:52.845Z,99.90
2018-07-26T21:57:28.373Z,99.90
2018-07-26T22:00:03.942Z,99.90
2018-07-26T22:02:39.311Z,99.90
2018-07-26T22:05:14.633Z,99.90
2018-07-26T22:07:50.073Z,99.90
2018-07-26T22:10:25.614Z,99.90
2018-07-26T22:13:00.832Z,99.90
2018-07-26T22:15:36.412Z,99.90
2018-07-26T22:18:11.892Z,99.90
2018-07-26T22:23:23.269Z,99.90
2018-07-26T22:25:59.001Z,99.90
2018-07-26T22:28:34.379Z,99.90
2018-07-26T22:31:10.397Z,99.90
2018-07-26T22:33:45.718Z,99.90
2018-07-26T22:36:21.093Z,99.90
2018-07-26T22:38:56.424Z,99.90
2018-07-26T22:41:31.988Z,99.90
2018-07-26T22:44:07.624Z,99.90
2018-07-26T22:46:43.288Z,99.90
2018-07-26T22:49:18.659Z,99.90
2018-07-26T22:51:54.381Z,99.90
2018-07-26T22:54:29.656Z,99.90
2018-07-26T22:57:05.369Z,99.90
2018-07-26T23:02:16.182Z,99.90
2018-07-26T23:07:27.162Z,99.90
2018-07-26T23:10:02.670Z,99.90
2018-07-26T23:12:38.457Z,99.90
2018-07-26T23:15:13.900Z,99.90
2018-07-26T23:17:49.328Z,99.90
2018-07-26T23:22:59.824Z,99.90
2018-07-26T23:25:35.390Z,99.90
2018-07-26T23:28:10.925Z,99.90
2018-07-26T23:33:21.923Z,99.90
2018-07-26T23:35:57.436Z,99.90
2018-07-26T23:38:33.114Z,99.90
2018-07-26T23:41:08.626Z,99.90
2018-07-26T23:43:44.204Z,99.90
2018-07-26T23:46:19.665Z,99.90
2018-07-26T23:48:55.204Z,99.90
2018-07-26T23:51:31.980Z,99.90
2018-07-26T23:54:07.633Z,99.90
2018-07-26T23:56:43.025Z,99.90
2018-07-26T23:59:18.544Z,99.90
